Sulphur Springs, TX

11:14 AM CDT on July 31, 2015 (GMT -0500)
Sulphur Springs Municipal | | Change Station
CLOSE
Current Station
Airport
Location: Sulphur Springs,
Elevation: 489 ft
Nearby Weather Stations

Elev 489 ft 33.16 °N, 95.62 °W | Updated 19 minutes ago

Clear
Clear
87 °F
Feels Like 88 °F
N
10
Wind Variable Wind from East

Today
High -- | Low -- °F
--% Chance of Precip.
Yesterday
High -- | Low -- °F
Precip. -- in
6:34 AM 8:22 PM
Full, 100% visible
Pressure 30.12 in
Visibility 10.0 miles
Clouds Clear
Heat Index 88 °F
Dew Point 63 °F
Humidity 45%
Rainfall 0.00 in
Snow Depth Not available.
UV 8 out of 12
Pollen 4.60 out of 12
Air Quality Not available.
Flu Activity Not available.
METAR KSLR 311555Z AUTO 08009KT 10SM CLR 31/17 A3012 RMK AO2 T03060174

More Conditions Fewer Conditions

Pressure 30.12 in
Visibility 10.0 miles
Clouds Clear
Heat Index 88 °F
Dew Point 63 °F
Humidity 45%
Rainfall 0.00 in
Snow Depth Not available.
UV 8 out of 12
Pollen 4.60 out of 12
Air Quality Not available.
Flu Activity Not available.
METAR KSLR 311555Z AUTO 08009KT 10SM CLR 31/17 A3012 RMK AO2 T03060174

More Conditions Fewer Conditions

Nowcast | as of 9:34 am CDT on July 31, 2015

Early morning surface analysis revealed that easterly winds have overspread nearly all of north and central Texas in response to a diffuse cold front that moved through the area early this morning. Through noon...isolated showers with perhaps a storm or two will be possible...especially along and west of a Bonham to Mexia to Lampasas line. Not all locations will experience rain and widespread severe weather is not anticipated at this time. The strongest storms will be capable of producing gusty winds...cloud to ground lightning and heavy rain. Otherwise...high temperatures will climb into the mid to upper 90s.

×

10-Day Weather Forecast

×

Almanac

Astronomy

Jul. 31, 2015 Rise Set
Actual Time
Civil Twilight
Nautical Twilight
Astronomical Twilight
Moon
Length of Visible Light
Length of Day
Tomorrow will be .
, % of the Moon is Illuminated

Today's Extremes

State Highs State Lows

Community

WunderPhotos

Upload Photos

1,842,685 photos uploaded!

WunderBlogs® & News

Nearby

Air Quality

  Air Quality AQ Index Pollutant
Not available.

Snow Depth

Station Depth Elevation

Earthquake Activity

City Distance Mag. Time & Date
Minimum magnitude displayed is 2.5.

Coastal Water Temperatures

Place Temperature

Stations

Nearby Weather Stations

Station Location Temp. Windchill Dew Point Humidity Wind Precip. Elev Updated Type